Terminal Aerodrome Forecast
Issued by NWS

Home | Current Version | Previous Version | Text Only | Print | Product List | Glossary On
Versions: 1 2 3 4 5 6 7 8 9 10 11 12 13 14 15 16 17 18 19 20 21 22 23 24 25
594
FTUS43 KLOT 100908 AAA
TAFMDW
TAF AMD
KMDW 100908Z 1009/1106 31012G18KT P6SM VCSH FEW030 BKN040 BKN060
     FM101100 31011G16KT P6SM BKN040 BKN250
     FM110100 32008KT P6SM SCT150=

USA.gov is the U.S. government's official web portal to all federal, state and local government web resources and services.